sensor_id;sensor_type;location;lat;lon;timestamp;pressure;altitude;pressure_sealevel;temperature;humidity
9129;BME280;4599;50.906;6.786;2023-04-25T00:03:38;17067.22;;;-142.83;70.68
9129;BME280;4599;50.906;6.786;2023-04-25T00:07:40;17044.72;;;-142.83;71.43
9129;BME280;4599;50.906;6.786;2023-04-25T00:11:42;17040.63;;;-142.83;71.10
9129;BME280;4599;50.906;6.786;2023-04-25T00:15:43;17005.84;;;-142.83;71.41
9129;BME280;4599;50.906;6.786;2023-04-25T00:19:46;17012.00;;;-142.83;71.62
9129;BME280;4599;50.906;6.786;2023-04-25T00:23:48;17036.53;;;-142.83;73.15
9129;BME280;4599;50.906;6.786;2023-04-25T00:27:50;17040.63;;;-142.83;71.94
9129;BME280;4599;50.906;6.786;2023-04-25T00:31:51;17036.53;;;-142.83;72.17
9129;BME280;4599;50.906;6.786;2023-04-25T00:35:54;17020.19;;;-142.83;71.91
9129;BME280;4599;50.906;6.786;2023-04-25T00:39:58;16999.72;;;-142.83;73.02
9129;BME280;4599;50.906;6.786;2023-04-25T00:44:00;17038.59;;;-142.83;73.37
9129;BME280;4599;50.906;6.786;2023-04-25T00:48:04;17016.09;;;-142.83;73.08
9129;BME280;4599;50.906;6.786;2023-04-25T00:52:07;16995.63;;;-142.83;72.56
9129;BME280;4599;50.906;6.786;2023-04-25T00:56:08;17007.91;;;-142.83;73.84
9129;BME280;4599;50.906;6.786;2023-04-25T01:00:10;17009.94;;;-142.83;73.31
9129;BME280;4599;50.906;6.786;2023-04-25T01:04:12;17001.78;;;-142.83;73.27
9129;BME280;4599;50.906;6.786;2023-04-25T01:08:16;16967.00;;;-142.83;73.60
9129;BME280;4599;50.906;6.786;2023-04-25T01:12:18;16995.63;;;-142.83;74.23
9129;BME280;4599;50.906;6.786;2023-04-25T01:16:19;16977.22;;;-142.83;74.08
9129;BME280;4599;50.906;6.786;2023-04-25T01:20:22;16975.19;;;-142.83;73.94
9129;BME280;4599;50.906;6.786;2023-04-25T01:24:25;16958.81;;;-142.83;75.13
9129;BME280;4599;50.906;6.786;2023-04-25T01:28:27;16985.41;;;-142.83;75.23
9129;BME280;4599;50.906;6.786;2023-04-25T01:32:30;16946.53;;;-142.83;75.78
9129;BME280;4599;50.906;6.786;2023-04-25T01:36:32;16952.69;;;-142.83;75.77
9129;BME280;4599;50.906;6.786;2023-04-25T01:40:37;16950.63;;;-142.83;75.77
9129;BME280;4599;50.906;6.786;2023-04-25T01:44:40;16938.38;;;-142.83;76.38
9129;BME280;4599;50.906;6.786;2023-04-25T01:48:41;16911.78;;;-142.83;76.71
9129;BME280;4599;50.906;6.786;2023-04-25T01:52:43;16936.31;;;-142.83;77.46
9129;BME280;4599;50.906;6.786;2023-04-25T01:56:50;16930.19;;;-142.83;77.07
9129;BME280;4599;50.906;6.786;2023-04-25T02:00:51;16954.72;;;-142.83;77.00
9129;BME280;4599;50.906;6.786;2023-04-25T02:04:53;16960.88;;;-142.83;77.44
9129;BME280;4599;50.906;6.786;2023-04-25T02:08:54;16954.72;;;-142.83;76.71
9129;BME280;4599;50.906;6.786;2023-04-25T02:12:58;16983.38;;;-142.83;76.38
9129;BME280;4599;50.906;6.786;2023-04-25T02:16:59;16934.28;;;-142.83;76.82
9129;BME280;4599;50.906;6.786;2023-04-25T02:21:01;16975.19;;;-142.83;77.13
9129;BME280;4599;50.906;6.786;2023-04-25T02:25:03;16956.78;;;-142.83;76.36
9129;BME280;4599;50.906;6.786;2023-04-25T02:29:06;16979.28;;;-142.83;76.19
9129;BME280;4599;50.906;6.786;2023-04-25T02:33:07;16969.03;;;-142.83;76.58
9129;BME280;4599;50.906;6.786;2023-04-25T02:37:09;16999.72;;;-142.83;76.58
9129;BME280;4599;50.906;6.786;2023-04-25T02:41:10;16977.22;;;-142.83;76.45
9129;BME280;4599;50.906;6.786;2023-04-25T02:45:13;16979.28;;;-142.83;77.25
9129;BME280;4599;50.906;6.786;2023-04-25T02:49:15;16973.13;;;-142.83;76.89
9129;BME280;4599;50.906;6.786;2023-04-25T02:53:17;16967.00;;;-142.83;77.04
9129;BME280;4599;50.906;6.786;2023-04-25T02:57:18;16950.63;;;-142.83;76.93
9129;BME280;4599;50.906;6.786;2023-04-25T03:01:21;16977.22;;;-142.83;77.41
9129;BME280;4599;50.906;6.786;2023-04-25T03:05:23;16971.09;;;-142.83;77.58
9129;BME280;4599;50.906;6.786;2023-04-25T03:09:24;16940.41;;;-142.83;77.70
9129;BME280;4599;50.906;6.786;2023-04-25T03:13:26;16932.22;;;-142.83;77.30
9129;BME280;4599;50.906;6.786;2023-04-25T03:17:29;16946.53;;;-142.83;76.69
9129;BME280;4599;50.906;6.786;2023-04-25T03:21:30;16956.78;;;-142.83;76.88
9129;BME280;4599;50.906;6.786;2023-04-25T03:25:32;16950.63;;;-142.83;77.43
9129;BME280;4599;50.906;6.786;2023-04-25T03:29:33;16975.19;;;-142.83;77.09
9129;BME280;4599;50.906;6.786;2023-04-25T03:33:36;16962.91;;;-142.83;76.94
9129;BME280;4599;50.906;6.786;2023-04-25T03:37:38;16987.44;;;-142.83;76.85
9129;BME280;4599;50.906;6.786;2023-04-25T03:41:40;16954.72;;;-142.83;77.34
9129;BME280;4599;50.906;6.786;2023-04-25T03:45:41;16967.00;;;-142.83;77.23
9129;BME280;4599;50.906;6.786;2023-04-25T03:49:44;16979.28;;;-142.83;77.67
9129;BME280;4599;50.906;6.786;2023-04-25T03:53:46;16934.28;;;-142.83;78.19
9129;BME280;4599;50.906;6.786;2023-04-25T03:57:47;16971.09;;;-142.83;77.12
9129;BME280;4599;50.906;6.786;2023-04-25T04:01:48;16958.81;;;-142.83;77.08
9129;BME280;4599;50.906;6.786;2023-04-25T04:05:51;16958.81;;;-142.83;76.80
9129;BME280;4599;50.906;6.786;2023-04-25T04:09:53;16981.31;;;-142.83;77.25
9129;BME280;4599;50.906;6.786;2023-04-25T04:13:55;16946.53;;;-142.83;77.31
9129;BME280;4599;50.906;6.786;2023-04-25T04:17:56;16936.31;;;-142.83;77.32
9129;BME280;4599;50.906;6.786;2023-04-25T04:21:59;16942.47;;;-142.83;77.74
9129;BME280;4599;50.906;6.786;2023-04-25T04:26:00;16977.22;;;-142.83;77.47
9129;BME280;4599;50.906;6.786;2023-04-25T04:30:02;16975.19;;;-142.83;77.68
9129;BME280;4599;50.906;6.786;2023-04-25T04:34:03;16938.38;;;-142.83;78.22
9129;BME280;4599;50.906;6.786;2023-04-25T04:38:06;16950.63;;;-142.83;77.67
9129;BME280;4599;50.906;6.786;2023-04-25T04:42:07;16954.72;;;-142.83;78.03
9129;BME280;4599;50.906;6.786;2023-04-25T04:46:09;16995.63;;;-142.83;77.73
9129;BME280;4599;50.906;6.786;2023-04-25T04:50:11;16971.09;;;-142.83;77.64
9129;BME280;4599;50.906;6.786;2023-04-25T04:54:13;16979.28;;;-142.83;78.06
9129;BME280;4599;50.906;6.786;2023-04-25T04:58:15;16969.03;;;-142.83;77.88
9129;BME280;4599;50.906;6.786;2023-04-25T05:02:19;16987.44;;;-142.83;78.14
9129;BME280;4599;50.906;6.786;2023-04-25T05:06:21;16962.91;;;-142.83;77.28
9129;BME280;4599;50.906;6.786;2023-04-25T05:10:24;16977.22;;;-142.83;77.46
9129;BME280;4599;50.906;6.786;2023-04-25T05:14:25;16971.09;;;-142.83;77.17
9129;BME280;4599;50.906;6.786;2023-04-25T05:18:55;16964.97;;;-142.83;76.98
9129;BME280;4599;50.906;6.786;2023-04-25T05:22:56;17024.25;;;-142.83;76.76
9129;BME280;4599;50.906;6.786;2023-04-25T05:26:59;16985.41;;;-142.83;76.40
9129;BME280;4599;50.906;6.786;2023-04-25T05:31:01;16995.63;;;-142.83;75.22
9129;BME280;4599;50.906;6.786;2023-04-25T05:35:02;17028.34;;;-142.83;74.97
9129;BME280;4599;50.906;6.786;2023-04-25T05:39:04;17022.22;;;-142.83;74.79
9129;BME280;4599;50.906;6.786;2023-04-25T05:43:07;17030.41;;;-142.83;73.84
9129;BME280;4599;50.906;6.786;2023-04-25T05:47:08;17069.25;;;-142.83;73.42
9129;BME280;4599;50.906;6.786;2023-04-25T05:51:10;17134.72;;;-142.83;70.82
9129;BME280;4599;50.906;6.786;2023-04-25T05:55:12;17194.03;;;-142.83;69.19
9129;BME280;4599;50.906;6.786;2023-04-25T05:59:15;17167.44;;;-142.83;67.36
9129;BME280;4599;50.906;6.786;2023-04-25T06:03:17;17126.53;;;-142.83;68.85
9129;BME280;4599;50.906;6.786;2023-04-25T06:07:21;17185.84;;;-142.83;66.73
9129;BME280;4599;50.906;6.786;2023-04-25T06:11:22;17306.53;;;-142.83;63.49
9129;BME280;4599;50.906;6.786;2023-04-25T06:15:25;17196.06;;;-142.83;66.13
9129;BME280;4599;50.906;6.786;2023-04-25T06:19:29;17216.53;;;-142.83;65.31
9129;BME280;4599;50.906;6.786;2023-04-25T06:23:30;17189.94;;;-142.83;66.26
9129;BME280;4599;50.906;6.786;2023-04-25T06:27:32;17161.31;;;-142.83;66.44
9129;BME280;4599;50.906;6.786;2023-04-25T06:31:35;17179.72;;;-142.83;67.03
9129;BME280;4599;50.906;6.786;2023-04-25T06:35:36;17167.44;;;-142.83;67.13
9129;BME280;4599;50.906;6.786;2023-04-25T06:39:38;17177.66;;;-142.83;66.72
9129;BME280;4599;50.906;6.786;2023-04-25T06:43:45;17187.88;;;-142.83;65.95
9129;BME280;4599;50.906;6.786;2023-04-25T06:47:48;17175.63;;;-142.83;67.50
9129;BME280;4599;50.906;6.786;2023-04-25T06:51:50;17208.34;;;-142.83;65.94
9129;BME280;4599;50.906;6.786;2023-04-25T06:55:51;17279.94;;;-142.83;62.73
9129;BME280;4599;50.906;6.786;2023-04-25T06:59:53;17181.75;;;-142.83;65.07
9129;BME280;4599;50.906;6.786;2023-04-25T07:03:57;17243.13;;;-142.83;64.58
9129;BME280;4599;50.906;6.786;2023-04-25T07:07:59;17218.56;;;-142.83;65.83
9129;BME280;4599;50.906;6.786;2023-04-25T07:12:02;17163.34;;;-142.83;65.48
9129;BME280;4599;50.906;6.786;2023-04-25T07:16:04;17187.88;;;-142.83;65.14
9129;BME280;4599;50.906;6.786;2023-04-25T07:20:08;17171.53;;;-142.83;65.19
9129;BME280;4599;50.906;6.786;2023-04-25T07:24:10;17189.94;;;-142.83;64.70
9129;BME280;4599;50.906;6.786;2023-04-25T07:28:11;17181.75;;;-142.83;64.16
9129;BME280;4599;50.906;6.786;2023-04-25T07:32:13;17249.25;;;-142.83;63.80
9129;BME280;4599;50.906;6.786;2023-04-25T07:36:16;17273.78;;;-142.83;64.85
9129;BME280;4599;50.906;6.786;2023-04-25T07:40:17;17273.78;;;-142.83;60.98
9129;BME280;4599;50.906;6.786;2023-04-25T07:44:19;17204.25;;;-142.83;60.30
9129;BME280;4599;50.906;6.786;2023-04-25T07:48:20;17210.38;;;-142.83;61.03
9129;BME280;4599;50.906;6.786;2023-04-25T07:52:23;17187.88;;;-142.83;61.00
9129;BME280;4599;50.906;6.786;2023-04-25T07:56:25;17179.72;;;-142.83;62.04
9129;BME280;4599;50.906;6.786;2023-04-25T08:00:26;17222.66;;;-142.83;61.85
9129;BME280;4599;50.906;6.786;2023-04-25T08:04:28;17310.63;;;-142.83;60.79
9129;BME280;4599;50.906;6.786;2023-04-25T08:08:31;17331.06;;;-142.83;58.70
9129;BME280;4599;50.906;6.786;2023-04-25T08:12:33;17402.66;;;-142.83;57.58
9129;BME280;4599;50.906;6.786;2023-04-25T08:16:34;17365.84;;;-142.83;56.50
9129;BME280;4599;50.906;6.786;2023-04-25T08:20:35;17357.66;;;-142.83;56.80
9129;BME280;4599;50.906;6.786;2023-04-25T08:24:38;17306.53;;;-142.83;56.87
9129;BME280;4599;50.906;6.786;2023-04-25T08:28:40;17318.78;;;-142.83;57.24
9129;BME280;4599;50.906;6.786;2023-04-25T08:32:41;17363.78;;;-142.83;57.35
9129;BME280;4599;50.906;6.786;2023-04-25T08:36:43;17421.06;;;-142.83;56.32
9129;BME280;4599;50.906;6.786;2023-04-25T08:40:49;17398.56;;;-142.83;54.78
9129;BME280;4599;50.906;6.786;2023-04-25T08:44:53;17374.03;;;-142.83;54.97
9129;BME280;4599;50.906;6.786;2023-04-25T08:48:57;17386.28;;;-142.83;53.01
9129;BME280;4599;50.906;6.786;2023-04-25T08:53:03;17326.97;;;-142.83;54.81
9129;BME280;4599;50.906;6.786;2023-04-25T08:57:06;17308.56;;;-142.83;55.53
9129;BME280;4599;50.906;6.786;2023-04-25T09:01:08;17335.16;;;-142.83;54.54
9129;BME280;4599;50.906;6.786;2023-04-25T09:05:12;17312.66;;;-142.83;54.01
9129;BME280;4599;50.906;6.786;2023-04-25T09:09:14;17312.66;;;-142.83;54.26
9129;BME280;4599;50.906;6.786;2023-04-25T09:13:24;17290.16;;;-142.83;54.61
9129;BME280;4599;50.906;6.786;2023-04-25T09:17:26;17271.75;;;-142.83;55.11
9129;BME280;4599;50.906;6.786;2023-04-25T09:21:28;17253.34;;;-142.83;55.19
9129;BME280;4599;50.906;6.786;2023-04-25T09:25:34;17306.53;;;-142.83;52.13
9129;BME280;4599;50.906;6.786;2023-04-25T09:29:38;17267.66;;;-142.83;53.61
9129;BME280;4599;50.906;6.786;2023-04-25T09:33:40;17314.69;;;-142.83;53.02
9129;BME280;4599;50.906;6.786;2023-04-25T09:37:42;17251.28;;;-142.83;54.36
9129;BME280;4599;50.906;6.786;2023-04-25T09:41:43;17265.63;;;-142.83;54.88
9129;BME280;4599;50.906;6.786;2023-04-25T09:45:46;17290.16;;;-142.83;53.32
9129;BME280;4599;50.906;6.786;2023-04-25T09:49:48;17329.03;;;-142.83;53.09
9129;BME280;4599;50.906;6.786;2023-04-25T09:53:50;17371.97;;;-142.83;51.73
9129;BME280;4599;50.906;6.786;2023-04-25T09:57:54;17404.69;;;-142.83;51.50
9129;BME280;4599;50.906;6.786;2023-04-25T10:02:00;17363.78;;;-142.83;51.74
9129;BME280;4599;50.906;6.786;2023-04-25T10:06:07;17347.44;;;-142.83;52.09
9129;BME280;4599;50.906;6.786;2023-04-25T10:10:12;17286.06;;;-142.83;54.43
9129;BME280;4599;50.906;6.786;2023-04-25T10:14:14;17253.34;;;-142.83;53.35
9129;BME280;4599;50.906;6.786;2023-04-25T10:18:18;17273.78;;;-142.83;54.02
9129;BME280;4599;50.906;6.786;2023-04-25T10:22:25;17310.63;;;-142.83;52.46
9129;BME280;4599;50.906;6.786;2023-04-25T10:26:28;17273.78;;;-142.83;53.77
9129;BME280;4599;50.906;6.786;2023-04-25T10:30:31;17290.16;;;-142.83;53.51
9129;BME280;4599;50.906;6.786;2023-04-25T10:34:42;17357.66;;;-142.83;53.39
9129;BME280;4599;50.906;6.786;2023-04-25T10:38:45;17423.09;;;-142.83;50.81
9129;BME280;4599;50.906;6.786;2023-04-25T10:42:47;17764.72;;;-142.83;50.24
9129;BME280;4599;50.906;6.786;2023-04-25T10:46:48;17727.91;;;-142.83;45.63
9129;BME280;4599;50.906;6.786;2023-04-25T10:51:06;17576.53;;;-142.83;45.90
9129;BME280;4599;50.906;6.786;2023-04-25T10:55:08;17468.09;;;-142.83;48.96
9129;BME280;4599;50.906;6.786;2023-04-25T10:59:10;17406.75;;;-142.83;47.80
9129;BME280;4599;50.906;6.786;2023-04-25T11:03:16;17408.78;;;-142.83;48.62
9129;BME280;4599;50.906;6.786;2023-04-25T11:07:25;17400.59;;;-142.83;48.74
9129;BME280;4599;50.906;6.786;2023-04-25T11:11:29;17384.25;;;-142.83;48.27
9129;BME280;4599;50.906;6.786;2023-04-25T11:15:31;17318.78;;;-142.83;51.36
9129;BME280;4599;50.906;6.786;2023-04-25T11:19:32;17374.03;;;-142.83;49.76
9129;BME280;4599;50.906;6.786;2023-04-25T11:23:35;17376.06;;;-142.83;49.88
9129;BME280;4599;50.906;6.786;2023-04-25T11:27:38;17414.94;;;-142.83;49.25
9129;BME280;4599;50.906;6.786;2023-04-25T11:31:43;17824.03;;;-142.83;48.88
9129;BME280;4599;50.906;6.786;2023-04-25T11:35:44;17711.53;;;-142.83;43.85
9129;BME280;4599;50.906;6.786;2023-04-25T11:39:47;17625.63;;;-142.83;44.71
9129;BME280;4599;50.906;6.786;2023-04-25T11:43:49;17531.53;;;-142.83;46.61
9129;BME280;4599;50.906;6.786;2023-04-25T11:47:51;17641.97;;;-142.83;43.68
9129;BME280;4599;50.906;6.786;2023-04-25T11:51:53;18057.25;;;-142.83;43.28
9129;BME280;4599;50.906;6.786;2023-04-25T11:55:56;17979.50;;;-142.83;44.11
9129;BME280;4599;50.906;6.786;2023-04-25T12:00:05;18161.59;;;-142.83;38.75
9129;BME280;4599;50.906;6.786;2023-04-25T12:04:11;18337.53;;;-142.83;37.69
9129;BME280;4599;50.906;6.786;2023-04-25T12:08:13;17764.72;;;-142.83;40.22
9129;BME280;4599;50.906;6.786;2023-04-25T12:12:16;17496.75;;;-142.83;43.03
9129;BME280;4599;50.906;6.786;2023-04-25T12:16:18;17740.16;;;-142.83;39.51
9129;BME280;4599;50.906;6.786;2023-04-25T12:20:21;18020.44;;;-142.83;36.63
9129;BME280;4599;50.906;6.786;2023-04-25T12:24:24;18159.53;;;-142.83;38.54
9129;BME280;4599;50.906;6.786;2023-04-25T12:28:27;18276.16;;;-142.83;35.90
9129;BME280;4599;50.906;6.786;2023-04-25T12:32:29;17999.97;;;-142.83;36.12
9129;BME280;4599;50.906;6.786;2023-04-25T12:36:31;17809.72;;;-142.83;38.41
9129;BME280;4599;50.906;6.786;2023-04-25T12:40:32;17615.38;;;-142.83;39.07
9129;BME280;4599;50.906;6.786;2023-04-25T12:44:35;17607.22;;;-142.83;41.11
9129;BME280;4599;50.906;6.786;2023-04-25T12:48:37;17482.44;;;-142.83;43.34
9129;BME280;4599;50.906;6.786;2023-04-25T12:52:38;17498.78;;;-142.83;45.39
9129;BME280;4599;50.906;6.786;2023-04-25T12:56:40;17455.84;;;-142.83;43.70
9129;BME280;4599;50.906;6.786;2023-04-25T13:00:43;17451.75;;;-142.83;44.91
9129;BME280;4599;50.906;6.786;2023-04-25T13:04:45;17410.84;;;-142.83;47.00
9129;BME280;4599;50.906;6.786;2023-04-25T13:08:46;17441.53;;;-142.83;46.82
9129;BME280;4599;50.906;6.786;2023-04-25T13:12:48;17384.25;;;-142.83;46.49
9129;BME280;4599;50.906;6.786;2023-04-25T13:16:51;17376.06;;;-142.83;45.87
9129;BME280;4599;50.906;6.786;2023-04-25T13:20:53;17468.09;;;-142.83;44.31
9129;BME280;4599;50.906;6.786;2023-04-25T13:24:54;17394.47;;;-142.83;46.50
9129;BME280;4599;50.906;6.786;2023-04-25T13:28:55;17435.38;;;-142.83;44.96
9129;BME280;4599;50.906;6.786;2023-04-25T13:32:58;17402.66;;;-142.83;44.24
9129;BME280;4599;50.906;6.786;2023-04-25T13:37:00;17474.25;;;-142.83;42.50
9129;BME280;4599;50.906;6.786;2023-04-25T13:41:01;17693.13;;;-142.83;40.39
9129;BME280;4599;50.906;6.786;2023-04-25T13:45:03;17754.50;;;-142.83;39.64
9129;BME280;4599;50.906;6.786;2023-04-25T13:49:06;17840.41;;;-142.83;37.66
9129;BME280;4599;50.906;6.786;2023-04-25T13:53:13;17701.31;;;-142.83;39.42
9129;BME280;4599;50.906;6.786;2023-04-25T13:57:15;17682.88;;;-142.83;36.95
9129;BME280;4599;50.906;6.786;2023-04-25T14:01:16;17644.03;;;-142.83;37.51
9129;BME280;4599;50.906;6.786;2023-04-25T14:05:19;17558.13;;;-142.83;38.19
9129;BME280;4599;50.906;6.786;2023-04-25T14:09:21;17472.19;;;-142.83;39.60
9129;BME280;4599;50.906;6.786;2023-04-25T14:13:22;17539.69;;;-142.83;39.48
9129;BME280;4599;50.906;6.786;2023-04-25T14:17:23;17476.28;;;-142.83;40.51
9129;BME280;4599;50.906;6.786;2023-04-25T14:21:26;17427.19;;;-142.83;40.40
9129;BME280;4599;50.906;6.786;2023-04-25T14:25:29;17527.44;;;-142.83;40.31
9129;BME280;4599;50.906;6.786;2023-04-25T14:29:31;17568.34;;;-142.83;39.24
9129;BME280;4599;50.906;6.786;2023-04-25T14:33:32;17543.78;;;-142.83;39.69
9129;BME280;4599;50.906;6.786;2023-04-25T14:37:35;17564.25;;;-142.83;40.41
9129;BME280;4599;50.906;6.786;2023-04-25T14:41:37;17625.63;;;-142.83;37.15
9129;BME280;4599;50.906;6.786;2023-04-25T14:45:39;17584.69;;;-142.83;39.44
9129;BME280;4599;50.906;6.786;2023-04-25T14:49:41;17537.66;;;-142.83;40.48
9129;BME280;4599;50.906;6.786;2023-04-25T14:53:44;17601.06;;;-142.83;42.55
9129;BME280;4599;50.906;6.786;2023-04-25T14:57:45;17613.34;;;-142.83;43.46
9129;BME280;4599;50.906;6.786;2023-04-25T15:01:47;17609.25;;;-142.83;41.81
9129;BME280;4599;50.906;6.786;2023-04-25T15:05:48;17547.88;;;-142.83;40.25
9129;BME280;4599;50.906;6.786;2023-04-25T15:09:51;17519.25;;;-142.83;40.24
9129;BME280;4599;50.906;6.786;2023-04-25T15:18:07;17603.13;;;-142.83;39.17
9129;BME280;4599;50.906;6.786;2023-04-25T15:22:09;17506.97;;;-142.83;39.93
9129;BME280;4599;50.906;6.786;2023-04-25T15:26:12;17445.59;;;-142.83;40.67
9129;BME280;4599;50.906;6.786;2023-04-25T15:30:15;17421.06;;;-142.83;41.58
9129;BME280;4599;50.906;6.786;2023-04-25T15:34:16;17494.69;;;-142.83;42.61
9129;BME280;4599;50.906;6.786;2023-04-25T15:38:18;17470.16;;;-142.83;40.64
9129;BME280;4599;50.906;6.786;2023-04-25T15:42:21;17509.03;;;-142.83;39.73
9129;BME280;4599;50.906;6.786;2023-04-25T15:46:22;17470.16;;;-142.83;40.01
9129;BME280;4599;50.906;6.786;2023-04-25T15:50:24;17449.69;;;-142.83;40.42
9129;BME280;4599;50.906;6.786;2023-04-25T15:54:25;17429.25;;;-142.83;40.97
9129;BME280;4599;50.906;6.786;2023-04-25T15:58:29;17441.53;;;-142.83;43.60
9129;BME280;4599;50.906;6.786;2023-04-25T16:02:30;17457.88;;;-142.83;43.70
9129;BME280;4599;50.906;6.786;2023-04-25T16:06:33;17394.47;;;-142.83;43.96
9129;BME280;4599;50.906;6.786;2023-04-25T16:10:34;17472.19;;;-142.83;43.07
9129;BME280;4599;50.906;6.786;2023-04-25T16:14:37;17414.94;;;-142.83;43.46
9129;BME280;4599;50.906;6.786;2023-04-25T16:18:39;17437.44;;;-142.83;43.16
9129;BME280;4599;50.906;6.786;2023-04-25T16:22:42;17437.44;;;-142.83;42.78
9129;BME280;4599;50.906;6.786;2023-04-25T16:26:43;17431.28;;;-142.83;43.69
9129;BME280;4599;50.906;6.786;2023-04-25T16:30:46;17464.03;;;-142.83;43.17
9129;BME280;4599;50.906;6.786;2023-04-25T16:34:48;17421.06;;;-142.83;42.23
9129;BME280;4599;50.906;6.786;2023-04-25T16:38:49;17359.69;;;-142.83;43.92
9129;BME280;4599;50.906;6.786;2023-04-25T16:42:51;17423.09;;;-142.83;44.65
9129;BME280;4599;50.906;6.786;2023-04-25T16:47:08;17425.16;;;-142.83;43.11
9129;BME280;4599;50.906;6.786;2023-04-25T16:51:09;17435.38;;;-142.83;44.29
9129;BME280;4599;50.906;6.786;2023-04-25T16:55:11;17431.28;;;-142.83;43.89
9129;BME280;4599;50.906;6.786;2023-04-25T16:59:12;17380.16;;;-142.83;47.73
9129;BME280;4599;50.906;6.786;2023-04-25T17:03:16;17445.59;;;-142.83;43.92
9129;BME280;4599;50.906;6.786;2023-04-25T17:07:18;17445.59;;;-142.83;43.51
9129;BME280;4599;50.906;6.786;2023-04-25T17:11:19;17423.09;;;-142.83;44.41
9129;BME280;4599;50.906;6.786;2023-04-25T17:15:21;17506.97;;;-142.83;41.71
9129;BME280;4599;50.906;6.786;2023-04-25T17:19:24;17396.53;;;-142.83;43.68
9129;BME280;4599;50.906;6.786;2023-04-25T17:23:25;17367.88;;;-142.83;44.80
9129;BME280;4599;50.906;6.786;2023-04-25T17:27:27;17341.28;;;-142.83;44.86
9129;BME280;4599;50.906;6.786;2023-04-25T17:31:28;17333.09;;;-142.83;45.13
9129;BME280;4599;50.906;6.786;2023-04-25T17:35:31;17363.78;;;-142.83;43.75
9129;BME280;4599;50.906;6.786;2023-04-25T17:39:33;17322.88;;;-142.83;44.41
9129;BME280;4599;50.906;6.786;2023-04-25T17:43:34;17333.09;;;-142.83;46.05
9129;BME280;4599;50.906;6.786;2023-04-25T17:47:36;17318.78;;;-142.83;45.19
9129;BME280;4599;50.906;6.786;2023-04-25T17:51:39;17331.06;;;-142.83;47.13
9129;BME280;4599;50.906;6.786;2023-04-25T17:55:40;17302.44;;;-142.83;46.25
9129;BME280;4599;50.906;6.786;2023-04-25T17:59:42;17277.88;;;-142.83;48.45
9129;BME280;4599;50.906;6.786;2023-04-25T18:03:43;17281.97;;;-142.83;47.18
9129;BME280;4599;50.906;6.786;2023-04-25T18:07:47;17267.66;;;-142.83;47.66
9129;BME280;4599;50.906;6.786;2023-04-25T18:11:50;17267.66;;;-142.83;48.10
9129;BME280;4599;50.906;6.786;2023-04-25T18:15:52;17257.44;;;-142.83;47.67
9129;BME280;4599;50.906;6.786;2023-04-25T18:19:53;17243.13;;;-142.83;48.28
9129;BME280;4599;50.906;6.786;2023-04-25T18:23:56;17273.78;;;-142.83;47.44
9129;BME280;4599;50.906;6.786;2023-04-25T18:27:58;17194.03;;;-142.83;49.78
9129;BME280;4599;50.906;6.786;2023-04-25T18:31:59;17216.53;;;-142.83;48.21
9129;BME280;4599;50.906;6.786;2023-04-25T18:36:01;17216.53;;;-142.83;49.01
9129;BME280;4599;50.906;6.786;2023-04-25T18:40:05;17185.84;;;-142.83;48.91
9129;BME280;4599;50.906;6.786;2023-04-25T18:44:08;17230.84;;;-142.83;50.69
9129;BME280;4599;50.906;6.786;2023-04-25T18:48:09;17183.81;;;-142.83;50.59
9129;BME280;4599;50.906;6.786;2023-04-25T18:52:12;17208.34;;;-142.83;49.48
9129;BME280;4599;50.906;6.786;2023-04-25T18:56:15;17187.88;;;-142.83;48.88
9129;BME280;4599;50.906;6.786;2023-04-25T19:00:17;17224.72;;;-142.83;49.64
9129;BME280;4599;50.906;6.786;2023-04-25T19:04:18;17198.13;;;-142.83;48.25
9129;BME280;4599;50.906;6.786;2023-04-25T19:08:20;17206.28;;;-142.83;47.66
9129;BME280;4599;50.906;6.786;2023-04-25T19:12:23;17214.47;;;-142.83;48.12
9129;BME280;4599;50.906;6.786;2023-04-25T19:16:24;17167.44;;;-142.83;49.25
9129;BME280;4599;50.906;6.786;2023-04-25T19:20:26;17198.13;;;-142.83;49.48
9129;BME280;4599;50.906;6.786;2023-04-25T19:24:27;17155.16;;;-142.83;48.64
9129;BME280;4599;50.906;6.786;2023-04-25T19:28:31;17179.72;;;-142.83;49.40
9129;BME280;4599;50.906;6.786;2023-04-25T19:32:32;17153.13;;;-142.83;49.96
9129;BME280;4599;50.906;6.786;2023-04-25T19:36:36;17134.72;;;-142.83;50.96
9129;BME280;4599;50.906;6.786;2023-04-25T19:40:37;17187.88;;;-142.83;50.44
9129;BME280;4599;50.906;6.786;2023-04-25T19:44:40;17159.25;;;-142.83;51.32
9129;BME280;4599;50.906;6.786;2023-04-25T19:48:41;17171.53;;;-142.83;51.61
9129;BME280;4599;50.906;6.786;2023-04-25T19:52:43;17138.81;;;-142.83;53.36
9129;BME280;4599;50.906;6.786;2023-04-25T19:56:44;17149.03;;;-142.83;53.02
9129;BME280;4599;50.906;6.786;2023-04-25T20:00:47;17116.31;;;-142.83;53.32
9129;BME280;4599;50.906;6.786;2023-04-25T20:04:49;17130.63;;;-142.83;54.52
9129;BME280;4599;50.906;6.786;2023-04-25T20:08:52;17138.81;;;-142.83;55.34
9129;BME280;4599;50.906;6.786;2023-04-25T20:12:54;17102.00;;;-142.83;57.24
9129;BME280;4599;50.906;6.786;2023-04-25T20:16:56;17097.91;;;-142.83;55.75
9129;BME280;4599;50.906;6.786;2023-04-25T20:20:58;17102.00;;;-142.83;57.16
9129;BME280;4599;50.906;6.786;2023-04-25T20:24:59;17077.44;;;-142.83;58.95
9129;BME280;4599;50.906;6.786;2023-04-25T20:29:01;17073.34;;;-142.83;59.80
9129;BME280;4599;50.906;6.786;2023-04-25T20:33:04;17061.09;;;-142.83;60.32
9129;BME280;4599;50.906;6.786;2023-04-25T20:37:05;17048.81;;;-142.83;60.42
9129;BME280;4599;50.906;6.786;2023-04-25T20:41:07;17040.63;;;-142.83;60.54
9129;BME280;4599;50.906;6.786;2023-04-25T20:45:09;17075.41;;;-142.83;62.23
9129;BME280;4599;50.906;6.786;2023-04-25T20:49:12;17081.53;;;-142.83;60.99
9129;BME280;4599;50.906;6.786;2023-04-25T20:53:14;17044.72;;;-142.83;60.60
9129;BME280;4599;50.906;6.786;2023-04-25T20:57:15;17032.44;;;-142.83;62.37
9129;BME280;4599;50.906;6.786;2023-04-25T21:01:17;16993.59;;;-142.83;62.54
9129;BME280;4599;50.906;6.786;2023-04-25T21:05:21;17040.63;;;-142.83;62.18
9129;BME280;4599;50.906;6.786;2023-04-25T21:09:23;17032.44;;;-142.83;62.44
9129;BME280;4599;50.906;6.786;2023-04-25T21:13:25;17061.09;;;-142.83;60.93
9129;BME280;4599;50.906;6.786;2023-04-25T21:17:26;17040.63;;;-142.83;61.50
9129;BME280;4599;50.906;6.786;2023-04-25T21:21:29;17067.22;;;-142.83;60.09
9129;BME280;4599;50.906;6.786;2023-04-25T21:25:31;17065.16;;;-142.83;60.04
9129;BME280;4599;50.906;6.786;2023-04-25T21:29:32;17057.00;;;-142.83;58.44